createdAt,value
2022-08-01T00:00:09.741Z,57367.50
2022-08-01T00:02:41.913Z,57340.38
2022-08-01T00:05:09.890Z,57323.66
2022-08-01T00:07:36.697Z,57327.84
2022-08-01T00:10:09.931Z,57313.22
2022-08-01T00:12:36.906Z,57365.41
2022-08-01T00:15:05.183Z,57354.97
2022-08-01T00:17:31.952Z,57334.09
2022-08-01T00:19:58.588Z,57332.03
2022-08-01T00:22:25.656Z,57340.38
2022-08-01T00:24:52.363Z,57317.41
2022-08-01T00:27:19.121Z,57352.91
2022-08-01T00:30:11.029Z,57342.47
2022-08-01T00:32:33.450Z,57323.66
2022-08-01T00:35:00.114Z,57354.97
2022-08-01T00:37:26.858Z,57338.28
2022-08-01T00:39:53.673Z,57365.41
2022-08-01T00:42:20.726Z,57329.94
2022-08-01T00:44:47.443Z,57319.50
2022-08-01T00:47:14.135Z,57361.25
2022-08-01T00:49:41.065Z,57346.63
2022-08-01T00:52:09.739Z,57332.03
2022-08-01T00:54:36.621Z,57334.09
2022-08-01T00:57:03.867Z,57346.63
2022-08-01T00:59:31.389Z,57392.56
2022-08-01T01:01:58.857Z,57388.38
2022-08-01T01:04:25.945Z,57354.97
2022-08-01T01:07:27.575Z,57365.41
2022-08-01T01:10:18.632Z,57396.72
2022-08-01T01:13:28.322Z,57384.19
2022-08-01T01:16:06.331Z,57332.03
2022-08-01T01:18:43.926Z,57344.53
2022-08-01T01:21:22.534Z,57348.72
2022-08-01T01:24:10.328Z,57348.72
2022-08-01T01:27:07.520Z,57342.47
2022-08-01T01:29:58.799Z,57380.03
2022-08-01T01:32:42.928Z,57371.69
2022-08-01T01:35:25.226Z,57375.84
2022-08-01T01:37:59.231Z,57350.81
2022-08-01T01:40:27.262Z,57380.03
2022-08-01T01:42:56.935Z,57344.53
2022-08-01T01:45:26.408Z,57346.63
2022-08-01T01:47:55.338Z,57367.50
2022-08-01T01:50:23.540Z,57371.69
2022-08-01T01:52:53.212Z,57359.16
2022-08-01T01:55:22.365Z,57375.84
2022-08-01T01:57:51.284Z,57386.28
2022-08-01T02:00:18.899Z,57359.16
2022-08-01T02:02:46.953Z,57359.16
2022-08-01T02:05:14.958Z,57342.47
2022-08-01T02:07:42.376Z,57384.19
2022-08-01T02:10:10.850Z,57363.31
2022-08-01T02:12:40.303Z,57344.53
2022-08-01T02:15:08.044Z,57317.41
2022-08-01T02:17:41.051Z,57359.16
2022-08-01T02:20:08.134Z,57369.59
2022-08-01T02:22:54.513Z,57390.47
2022-08-01T02:25:28.399Z,57348.72
2022-08-01T02:28:16.704Z,57359.16
2022-08-01T02:30:48.161Z,57373.75
2022-08-01T02:33:20.726Z,57342.47
2022-08-01T02:36:30.414Z,57367.50
2022-08-01T02:38:45.687Z,57371.69
2022-08-01T02:41:21.694Z,57340.38
2022-08-01T02:43:53.391Z,57373.75
2022-08-01T02:46:39.074Z,57350.81
2022-08-01T02:49:08.987Z,57390.47
2022-08-01T02:51:37.289Z,57346.63
2022-08-01T02:54:06.270Z,57359.16
2022-08-01T02:56:37.020Z,57363.31
2022-08-01T02:59:07.581Z,57363.31
2022-08-01T03:01:37.915Z,57367.50
2022-08-01T03:04:08.605Z,57369.59
2022-08-01T03:06:37.215Z,57388.38
2022-08-01T03:09:07.204Z,57369.59
2022-08-01T03:11:36.123Z,57417.59
2022-08-01T03:14:06.023Z,57357.06
2022-08-01T03:16:34.455Z,57361.25
2022-08-01T03:19:02.893Z,57400.91
2022-08-01T03:21:32.832Z,57367.50
2022-08-01T03:24:02.200Z,57392.56
2022-08-01T03:26:31.423Z,57338.28
2022-08-01T03:29:02.805Z,57346.63
2022-08-01T03:31:31.351Z,57334.09
2022-08-01T03:34:00.763Z,57334.09
2022-08-01T03:36:31.928Z,57344.53
2022-08-01T03:39:01.831Z,57334.09
2022-08-01T03:41:33.677Z,57371.69
2022-08-01T03:44:06.423Z,57352.91
2022-08-01T03:46:53.111Z,57352.91
2022-08-01T03:49:23.902Z,57350.81
2022-08-01T03:51:52.360Z,57323.66
2022-08-01T03:54:24.575Z,57352.91
2022-08-01T03:56:52.976Z,57367.50
2022-08-01T03:59:21.161Z,57338.28
2022-08-01T04:01:49.161Z,57296.53
2022-08-01T04:04:16.409Z,57323.66
2022-08-01T04:06:45.687Z,57271.50
2022-08-01T04:09:13.976Z,57342.47
2022-08-01T04:11:42.033Z,57300.72
2022-08-01T04:14:09.510Z,57286.09
2022-08-01T04:16:36.279Z,57296.53
2022-08-01T04:19:03.659Z,57329.94
2022-08-01T04:21:33.666Z,57288.19
2022-08-01T04:24:09.837Z,57281.94
2022-08-01T04:26:38.170Z,57275.66
2022-08-01T04:29:07.265Z,57271.50
2022-08-01T04:31:35.975Z,57271.50
2022-08-01T04:34:06.923Z,57292.38
2022-08-01T04:36:37.764Z,57275.66
2022-08-01T04:39:06.315Z,57254.78
2022-08-01T04:41:34.706Z,57258.97
2022-08-01T04:44:01.747Z,57261.06
2022-08-01T04:46:29.829Z,57254.78
2022-08-01T04:48:57.498Z,57317.41
2022-08-01T04:51:24.249Z,57240.19
2022-08-01T04:53:52.156Z,57258.97
2022-08-01T04:56:22.250Z,57246.44
2022-08-01T04:58:49.161Z,57219.31
2022-08-01T05:01:16.680Z,57248.53
2022-08-01T05:03:43.583Z,57254.78
2022-08-01T05:06:10.184Z,57236.00
2022-08-01T05:08:37.233Z,57242.28
2022-08-01T05:11:04.358Z,57271.50
2022-08-01T05:13:31.586Z,57242.28
2022-08-01T05:15:58.267Z,57225.56
2022-08-01T05:18:28.263Z,57223.50
2022-08-01T05:20:55.683Z,57263.16
2022-08-01T05:23:42.579Z,57238.09
2022-08-01T05:26:09.412Z,57242.28
2022-08-01T05:28:36.297Z,57225.56
2022-08-01T05:31:04.188Z,57227.66
2022-08-01T05:33:30.864Z,57217.22
2022-08-01T05:35:57.544Z,57213.06
2022-08-01T05:38:24.123Z,57196.34
2022-08-01T05:40:50.800Z,57200.53
2022-08-01T05:43:17.451Z,57190.09
2022-08-01T05:45:45.724Z,57162.97
2022-08-01T05:48:12.482Z,57208.88
2022-08-01T05:50:39.171Z,57215.13
2022-08-01T05:53:05.875Z,57217.22
2022-08-01T05:55:32.506Z,57188.00
2022-08-01T05:57:59.172Z,57179.66
2022-08-01T06:00:25.966Z,57183.84
2022-08-01T06:02:52.598Z,57194.25
2022-08-01T06:05:19.234Z,57202.63
2022-08-01T06:07:45.855Z,57210.97
2022-08-01T06:10:12.609Z,57204.69
2022-08-01T06:12:39.558Z,57202.63
2022-08-01T06:15:06.898Z,57210.97
2022-08-01T06:17:33.602Z,57194.25
2022-08-01T06:20:00.937Z,57206.78
2022-08-01T06:22:28.200Z,57223.50
2022-08-01T06:24:55.069Z,57250.63
2022-08-01T06:27:22.770Z,57240.19
2022-08-01T06:29:51.295Z,57213.06
2022-08-01T06:32:27.159Z,57188.00
2022-08-01T06:34:55.745Z,57221.41
2022-08-01T06:37:22.862Z,57208.88
2022-08-01T06:39:51.023Z,57236.00
2022-08-01T06:42:18.689Z,57192.19
2022-08-01T06:44:46.244Z,57231.84
2022-08-01T06:47:13.265Z,57188.00
2022-08-01T06:49:40.255Z,57225.56
2022-08-01T06:52:07.552Z,57196.34
2022-08-01T06:54:34.579Z,57213.06
2022-08-01T06:57:01.233Z,57217.22
2022-08-01T06:59:27.948Z,57210.97
2022-08-01T07:01:54.591Z,57248.53
2022-08-01T07:04:21.239Z,57196.34
2022-08-01T07:06:47.879Z,57162.97
2022-08-01T07:09:14.866Z,57181.75
2022-08-01T07:11:42.308Z,57192.19
2022-08-01T07:14:09.020Z,57192.19
2022-08-01T07:16:35.799Z,57219.31
2022-08-01T07:19:02.535Z,57181.75
2022-08-01T07:21:40.135Z,57217.22
2022-08-01T07:24:16.520Z,57223.50
2022-08-01T07:26:53.821Z,57215.13
2022-08-01T07:29:24.901Z,57265.22
2022-08-01T07:31:54.020Z,57265.22
2022-08-01T07:34:20.844Z,57227.66
2022-08-01T07:36:47.430Z,57263.16
2022-08-01T07:39:14.307Z,57236.00
2022-08-01T07:41:53.412Z,57281.94
2022-08-01T07:44:28.210Z,57292.38
2022-08-01T07:46:55.874Z,57269.41
2022-08-01T07:49:22.973Z,57254.78
2022-08-01T07:52:03.520Z,57208.88
2022-08-01T07:54:33.956Z,57231.84
2022-08-01T07:57:01.885Z,57269.41
2022-08-01T07:59:28.762Z,57267.31
2022-08-01T08:01:55.549Z,57231.84
2022-08-01T08:04:23.004Z,57240.19
2022-08-01T08:06:50.282Z,57248.53
2022-08-01T08:09:17.143Z,57242.28
2022-08-01T08:11:48.446Z,57238.09
2022-08-01T08:14:16.248Z,57269.41
2022-08-01T08:16:43.985Z,57233.91
2022-08-01T08:19:11.065Z,57284.00
2022-08-01T08:21:38.853Z,57252.72
2022-08-01T08:24:26.780Z,57240.19
2022-08-01T08:27:03.966Z,57263.16
2022-08-01T08:29:33.516Z,57275.66
2022-08-01T08:32:01.418Z,57254.78
2022-08-01T08:34:29.908Z,57269.41
2022-08-01T08:36:58.851Z,57210.97
2022-08-01T08:39:26.048Z,57206.78
2022-08-01T08:41:53.012Z,57242.28
2022-08-01T08:44:21.179Z,57231.84
2022-08-01T08:46:52.197Z,57242.28
2022-08-01T08:49:24.444Z,57273.56
2022-08-01T08:51:52.761Z,57238.09
2022-08-01T08:54:29.067Z,57277.75
2022-08-01T08:57:00.979Z,57269.41
2022-08-01T08:59:29.281Z,57286.09
2022-08-01T09:01:56.853Z,57267.31
2022-08-01T09:04:25.943Z,57275.66
2022-08-01T09:06:54.811Z,57271.50
2022-08-01T09:09:21.480Z,57265.22
2022-08-01T09:11:57.697Z,57267.31
2022-08-01T09:14:27.338Z,57306.97
2022-08-01T09:17:03.743Z,57256.88
2022-08-01T09:19:57.712Z,57267.31
2022-08-01T09:22:26.322Z,57275.66
2022-08-01T09:25:05.001Z,57298.63
2022-08-01T09:27:32.976Z,57281.94
2022-08-01T09:30:28.954Z,57286.09
2022-08-01T09:32:55.935Z,57261.06
2022-08-01T09:35:35.997Z,57258.97
2022-08-01T09:38:12.667Z,57217.22
2022-08-01T09:41:01.596Z,57286.09
2022-08-01T09:43:31.275Z,57252.72
2022-08-01T09:45:58.968Z,57258.97
2022-08-01T09:48:28.006Z,57265.22
2022-08-01T09:51:04.304Z,57284.00
2022-08-01T09:53:51.112Z,57277.75
2022-08-01T09:56:20.692Z,57263.16
2022-08-01T09:58:52.627Z,57288.19
2022-08-01T10:01:25.593Z,57279.84
2022-08-01T10:04:11.382Z,57279.84
2022-08-01T10:06:39.789Z,57273.56
2022-08-01T10:09:07.763Z,57250.63
2022-08-01T10:11:37.756Z,57256.88
2022-08-01T10:14:08.158Z,57269.41
2022-08-01T10:16:38.528Z,57290.28
2022-08-01T10:19:11.210Z,57267.31
2022-08-01T10:21:56.936Z,57300.72
2022-08-01T10:24:27.729Z,57267.31
2022-08-01T10:27:05.801Z,57300.72
2022-08-01T10:30:14.274Z,57254.78
2022-08-01T10:32:50.658Z,57284.00
2022-08-01T10:35:24.105Z,57221.41
2022-08-01T10:38:06.088Z,57242.28
2022-08-01T10:40:38.606Z,57229.75
2022-08-01T10:43:06.901Z,57210.97
2022-08-01T10:45:35.001Z,57254.78
2022-08-01T10:48:20.647Z,57267.31
2022-08-01T10:50:50.544Z,57246.44
2022-08-01T10:53:24.356Z,57252.72
2022-08-01T10:55:59.296Z,57263.16
2022-08-01T10:58:42.708Z,57244.34
2022-08-01T11:01:25.730Z,57279.84
2022-08-01T11:04:04.030Z,57273.56
2022-08-01T11:06:33.636Z,57250.63
2022-08-01T11:09:05.799Z,57254.78
2022-08-01T11:11:37.463Z,57256.88
2022-08-01T11:14:10.670Z,57254.78
2022-08-01T11:16:40.870Z,57258.97
2022-08-01T11:19:11.912Z,57258.97
2022-08-01T11:21:58.933Z,57252.72
2022-08-01T11:24:50.921Z,57248.53
2022-08-01T11:27:33.680Z,57258.97
2022-08-01T11:30:09.605Z,57248.53
2022-08-01T11:33:10.327Z,57261.06
2022-08-01T11:35:46.835Z,57275.66
2022-08-01T11:38:31.717Z,57244.34
2022-08-01T11:41:38.311Z,57258.97
2022-08-01T11:44:12.126Z,57256.88
2022-08-01T11:46:58.183Z,57256.88
2022-08-01T11:49:49.198Z,57267.31
2022-08-01T11:52:31.529Z,57229.75
2022-08-01T11:55:02.109Z,57238.09
2022-08-01T11:57:34.200Z,57269.41
2022-08-01T12:00:08.851Z,57258.97
2022-08-01T12:02:36.154Z,57271.50
2022-08-01T12:05:15.758Z,57309.06
2022-08-01T12:07:44.850Z,57275.66
2022-08-01T12:10:13.992Z,57236.00
2022-08-01T12:12:47.275Z,57240.19
2022-08-01T12:15:15.560Z,57246.44
2022-08-01T12:17:56.464Z,57267.31
2022-08-01T12:20:33.964Z,57290.28
2022-08-01T12:23:06.853Z,57273.56
2022-08-01T12:25:33.885Z,57271.50
2022-08-01T12:28:02.766Z,57286.09
2022-08-01T12:30:32.051Z,57252.72
2022-08-01T12:32:59.227Z,57275.66
2022-08-01T12:35:28.024Z,57263.16
2022-08-01T12:37:56.228Z,57284.00
2022-08-01T12:40:28.978Z,57275.66
2022-08-01T12:43:07.396Z,57242.28
2022-08-01T12:45:41.051Z,57263.16
2022-08-01T12:48:24.398Z,57261.06
2022-08-01T12:50:53.627Z,57252.72
2022-08-01T12:53:21.575Z,57223.50
2022-08-01T12:55:58.509Z,57256.88
2022-08-01T12:58:33.354Z,57250.63
2022-08-01T13:01:06.321Z,57263.16
2022-08-01T13:03:33.022Z,57233.91
2022-08-01T13:06:01.351Z,57261.06
2022-08-01T13:08:35.735Z,57238.09
2022-08-01T13:11:14.883Z,57242.28
2022-08-01T13:13:50.381Z,57229.75
2022-08-01T13:16:38.482Z,57284.00
2022-08-01T13:19:13.073Z,57252.72
2022-08-01T13:21:54.174Z,57229.75
2022-08-01T13:24:26.879Z,57231.84
2022-08-01T13:26:57.275Z,57233.91
2022-08-01T13:29:35.739Z,57250.63
2022-08-01T13:32:23.091Z,57210.97
2022-08-01T13:35:08.963Z,57229.75
2022-08-01T13:37:38.531Z,57200.53
2022-08-01T13:40:07.541Z,57242.28
2022-08-01T13:42:34.856Z,57254.78
2022-08-01T13:45:03.071Z,57238.09
2022-08-01T13:47:32.057Z,57208.88
2022-08-01T13:50:03.207Z,57275.66
2022-08-01T13:52:31.812Z,57242.28
2022-08-01T13:54:59.228Z,57236.00
2022-08-01T13:57:25.992Z,57208.88
2022-08-01T14:00:08.502Z,57248.53
2022-08-01T14:02:35.374Z,57279.84
2022-08-01T14:05:02.458Z,57240.19
2022-08-01T14:07:29.097Z,57238.09
2022-08-01T14:10:18.460Z,57269.41
2022-08-01T14:12:43.392Z,57248.53
2022-08-01T14:15:12.582Z,57240.19
2022-08-01T14:17:40.438Z,57258.97
2022-08-01T14:20:14.760Z,57233.91
2022-08-01T14:22:41.656Z,57233.91
2022-08-01T14:25:09.081Z,57238.09
2022-08-01T14:27:37.383Z,57263.16
2022-08-01T14:30:05.420Z,57275.66
2022-08-01T14:32:34.318Z,57233.91
2022-08-01T14:35:05.404Z,57256.88
2022-08-01T14:37:37.834Z,57221.41
2022-08-01T14:40:08.647Z,57242.28
2022-08-01T14:42:37.593Z,57238.09
2022-08-01T14:45:05.074Z,57221.41
2022-08-01T14:47:31.683Z,57267.31
2022-08-01T14:49:58.402Z,57261.06
2022-08-01T14:52:25.057Z,57256.88
2022-08-01T14:54:51.705Z,57210.97
2022-08-01T14:57:19.337Z,57240.19
2022-08-01T14:59:46.764Z,57208.88
2022-08-01T15:02:17.975Z,57242.28
2022-08-01T15:04:45.860Z,57223.50
2022-08-01T15:07:12.911Z,57250.63
2022-08-01T15:09:40.161Z,57256.88
2022-08-01T15:12:08.262Z,57250.63
2022-08-01T15:14:50.910Z,57229.75
2022-08-01T15:17:33.216Z,57202.63
2022-08-01T15:20:03.377Z,57206.78
2022-08-01T15:22:30.701Z,57233.91
2022-08-01T15:24:59.115Z,57229.75
2022-08-01T15:27:27.059Z,57213.06
2022-08-01T15:29:54.648Z,57236.00
2022-08-01T15:32:22.608Z,57225.56
2022-08-01T15:34:49.420Z,57221.41
2022-08-01T15:37:16.358Z,57261.06
2022-08-01T15:39:43.026Z,57215.13
2022-08-01T15:42:11.855Z,57242.28
2022-08-01T15:44:40.098Z,57236.00
2022-08-01T15:47:07.776Z,57225.56
2022-08-01T15:49:37.010Z,57227.66
2022-08-01T15:52:08.483Z,57213.06
2022-08-01T15:54:49.262Z,57223.50
2022-08-01T15:57:15.977Z,57242.28
2022-08-01T15:59:42.814Z,57256.88
2022-08-01T16:02:09.995Z,57225.56
2022-08-01T16:04:38.732Z,57219.31
2022-08-01T16:07:06.465Z,57286.09
2022-08-01T16:09:33.123Z,57256.88
2022-08-01T16:11:59.830Z,57229.75
2022-08-01T16:14:26.525Z,57265.22
2022-08-01T16:16:54.340Z,57269.41
2022-08-01T16:19:21.167Z,57263.16
2022-08-01T16:21:48.093Z,57210.97
2022-08-01T16:24:14.949Z,57219.31
2022-08-01T16:26:43.244Z,57261.06
2022-08-01T16:29:10.103Z,57246.44
2022-08-01T16:31:42.183Z,57275.66
2022-08-01T16:34:23.931Z,57229.75
2022-08-01T16:36:52.744Z,57248.53
2022-08-01T16:39:23.050Z,57229.75
2022-08-01T16:41:55.076Z,57236.00
2022-08-01T16:44:33.190Z,57267.31
2022-08-01T16:47:02.841Z,57242.28
2022-08-01T16:49:29.509Z,57236.00
2022-08-01T16:51:56.182Z,57246.44
2022-08-01T16:54:25.447Z,57233.91
2022-08-01T16:56:53.433Z,57267.31
2022-08-01T16:59:20.451Z,57246.44
2022-08-01T17:01:58.648Z,57213.06
2022-08-01T17:04:30.086Z,57258.97
2022-08-01T17:06:57.363Z,57225.56
2022-08-01T17:09:23.968Z,57227.66
2022-08-01T17:11:50.744Z,57233.91
2022-08-01T17:14:17.978Z,57248.53
2022-08-01T17:16:44.741Z,57217.22
2022-08-01T17:19:11.360Z,57261.06
2022-08-01T17:21:41.277Z,57265.22
2022-08-01T17:24:08.805Z,57225.56
2022-08-01T17:26:35.446Z,57273.56
2022-08-01T17:29:02.054Z,57229.75
2022-08-01T17:31:28.745Z,57252.72
2022-08-01T17:33:55.557Z,57261.06
2022-08-01T17:36:22.881Z,57231.84
2022-08-01T17:38:49.623Z,57242.28
2022-08-01T17:41:16.516Z,57263.16
2022-08-01T17:43:43.258Z,57238.09
2022-08-01T17:46:10.157Z,57281.94
2022-08-01T17:48:36.928Z,57219.31
2022-08-01T17:51:03.859Z,57242.28
2022-08-01T17:53:30.931Z,57252.72
2022-08-01T17:55:59.003Z,57279.84
2022-08-01T17:58:49.573Z,57258.97
2022-08-01T18:01:15.876Z,57271.50
2022-08-01T18:03:42.839Z,57252.72
2022-08-01T18:06:10.881Z,57271.50
2022-08-01T18:08:40.462Z,57248.53
2022-08-01T18:11:08.146Z,57271.50
2022-08-01T18:13:35.969Z,57254.78
2022-08-01T18:16:06.485Z,57250.63
2022-08-01T18:18:34.238Z,57269.41
2022-08-01T18:21:04.007Z,57258.97
2022-08-01T18:23:32.024Z,57271.50
2022-08-01T18:26:01.586Z,57315.31
2022-08-01T18:28:34.043Z,57254.78
2022-08-01T18:31:03.594Z,57279.84
2022-08-01T18:33:30.338Z,57271.50
2022-08-01T18:36:03.618Z,57267.31
2022-08-01T18:38:32.869Z,57277.75
2022-08-01T18:41:01.203Z,57281.94
2022-08-01T18:43:28.849Z,57261.06
2022-08-01T18:45:58.248Z,57265.22
2022-08-01T18:48:25.042Z,57309.06
2022-08-01T18:50:54.138Z,57271.50
2022-08-01T18:53:22.567Z,57242.28
2022-08-01T18:55:50.076Z,57254.78
2022-08-01T18:58:16.683Z,57246.44
2022-08-01T19:00:43.524Z,57271.50
2022-08-01T19:03:10.373Z,57265.22
2022-08-01T19:05:37.072Z,57263.16
2022-08-01T19:08:05.107Z,57242.28
2022-08-01T19:10:37.036Z,57240.19
2022-08-01T19:13:04.163Z,57261.06
2022-08-01T19:15:30.937Z,57261.06
2022-08-01T19:17:57.671Z,57286.09
2022-08-01T19:20:24.423Z,57306.97
2022-08-01T19:22:51.195Z,57279.84
2022-08-01T19:25:18.245Z,57275.66
2022-08-01T19:27:47.701Z,57290.28
2022-08-01T19:30:15.531Z,57277.75
2022-08-01T19:32:43.891Z,57258.97
2022-08-01T19:35:12.899Z,57279.84
2022-08-01T19:37:46.011Z,57269.41
2022-08-01T19:40:27.655Z,57244.34
2022-08-01T19:42:57.501Z,57306.97
2022-08-01T19:45:28.269Z,57256.88
2022-08-01T19:47:56.642Z,57256.88
2022-08-01T19:50:26.438Z,57267.31
2022-08-01T19:52:55.471Z,57294.44
2022-08-01T19:55:24.169Z,57250.63
2022-08-01T19:58:10.573Z,57288.19
2022-08-01T20:00:39.830Z,57275.66
2022-08-01T20:03:07.662Z,57321.59
2022-08-01T20:05:34.861Z,57271.50
2022-08-01T20:08:02.427Z,57261.06
2022-08-01T20:10:31.228Z,57263.16
2022-08-01T20:12:58.832Z,57265.22
2022-08-01T20:15:25.744Z,57269.41
2022-08-01T20:17:53.145Z,57275.66
2022-08-01T20:20:19.816Z,57258.97
2022-08-01T20:22:48.852Z,57292.38
2022-08-01T20:25:19.435Z,57265.22
2022-08-01T20:27:47.643Z,57296.53
2022-08-01T20:30:14.503Z,57271.50
2022-08-01T20:32:41.434Z,57313.22
2022-08-01T20:35:08.639Z,57294.44
2022-08-01T20:38:05.685Z,57258.97
2022-08-01T20:40:30.215Z,57311.16
2022-08-01T20:42:57.760Z,57325.75
2022-08-01T20:45:28.746Z,57275.66
2022-08-01T20:47:56.207Z,57275.66
2022-08-01T20:50:52.936Z,57313.22
2022-08-01T20:53:22.805Z,57294.44
2022-08-01T20:55:56.882Z,57250.63
2022-08-01T20:58:33.832Z,57279.84
2022-08-01T21:01:09.253Z,57258.97
2022-08-01T21:03:48.955Z,57279.84
2022-08-01T21:06:22.460Z,57292.38
2022-08-01T21:08:50.569Z,57298.63
2022-08-01T21:11:21.900Z,57281.94
2022-08-01T21:13:49.302Z,57284.00
2022-08-01T21:16:23.663Z,57273.56
2022-08-01T21:19:21.890Z,57275.66
2022-08-01T21:21:57.972Z,57267.31
2022-08-01T21:24:34.306Z,57271.50
2022-08-01T21:27:03.462Z,57265.22
2022-08-01T21:29:32.737Z,57279.84
2022-08-01T21:32:12.503Z,57265.22
2022-08-01T21:34:40.422Z,57319.50
2022-08-01T21:37:08.628Z,57261.06
2022-08-01T21:39:37.589Z,57277.75
2022-08-01T21:42:08.946Z,57288.19
2022-08-01T21:44:39.181Z,57265.22
2022-08-01T21:47:07.095Z,57267.31
2022-08-01T21:49:40.306Z,57281.94
2022-08-01T21:52:18.150Z,57261.06
2022-08-01T21:55:15.496Z,57277.75
2022-08-01T21:58:22.628Z,57275.66
2022-08-01T22:00:54.211Z,57250.63
2022-08-01T22:03:24.219Z,57309.06
2022-08-01T22:05:53.484Z,57233.91
2022-08-01T22:08:48.809Z,57273.56
2022-08-01T22:11:20.160Z,57321.59
2022-08-01T22:13:46.809Z,57298.63
2022-08-01T22:16:18.116Z,57273.56
2022-08-01T22:18:46.121Z,57263.16
2022-08-01T22:21:13.223Z,57233.91
2022-08-01T22:23:39.931Z,57271.50
2022-08-01T22:26:08.462Z,57250.63
2022-08-01T22:28:36.646Z,57258.97
2022-08-01T22:31:04.421Z,57277.75
2022-08-01T22:33:34.041Z,57240.19
2022-08-01T22:36:20.037Z,57269.41
2022-08-01T22:38:46.760Z,57313.22
2022-08-01T22:41:16.940Z,57300.72
2022-08-01T22:43:46.846Z,57311.16
2022-08-01T22:46:16.978Z,57344.53
2022-08-01T22:48:53.775Z,57252.72
2022-08-01T22:51:26.819Z,57267.31
2022-08-01T22:54:03.275Z,57292.38
2022-08-01T22:56:36.254Z,57256.88
2022-08-01T22:59:19.381Z,57263.16
2022-08-01T23:01:51.065Z,57296.53
2022-08-01T23:04:37.771Z,57286.09
2022-08-01T23:07:06.678Z,57281.94
2022-08-01T23:09:54.361Z,57313.22
2022-08-01T23:12:24.372Z,57275.66
2022-08-01T23:14:56.369Z,57271.50
2022-08-01T23:17:27.498Z,57325.75
2022-08-01T23:20:00.233Z,57298.63
2022-08-01T23:22:32.350Z,57306.97
2022-08-01T23:25:05.110Z,57292.38
2022-08-01T23:28:04.577Z,57284.00
2022-08-01T23:30:27.068Z,57288.19
2022-08-01T23:32:55.038Z,57275.66
2022-08-01T23:35:21.888Z,57302.81
2022-08-01T23:37:51.202Z,57263.16
2022-08-01T23:40:18.951Z,57273.56
2022-08-01T23:42:46.023Z,57269.41
2022-08-01T23:45:12.754Z,57284.00
2022-08-01T23:47:39.488Z,57267.31
2022-08-01T23:50:07.891Z,57246.44
2022-08-01T23:52:36.812Z,57294.44
2022-08-01T23:55:15.685Z,57265.22
2022-08-01T23:57:43.197Z,57261.06
